createdAt,value
2018-12-25T00:02:26.892Z,97.00
2018-12-25T00:04:56.121Z,97.11
2018-12-25T00:07:25.369Z,97.42
2018-12-25T00:10:13.946Z,97.17
2018-12-25T00:12:43.202Z,97.38
2018-12-25T00:15:31.790Z,96.73
2018-12-25T00:18:20.462Z,95.84
2018-12-25T00:20:49.709Z,97.09
2018-12-25T00:26:51.447Z,97.85
2018-12-25T00:29:20.674Z,96.90
2018-12-25T00:31:49.911Z,97.34
2018-12-25T00:34:19.162Z,97.96
2018-12-25T00:36:48.419Z,98.19
2018-12-25T00:39:17.645Z,97.21
2018-12-25T00:41:46.886Z,98.14
2018-12-25T00:44:16.124Z,97.33
2018-12-25T00:46:45.430Z,97.15
2018-12-25T00:49:15.162Z,97.35
2018-12-25T00:51:49.829Z,98.15
2018-12-25T00:54:38.405Z,98.55
2018-12-25T00:57:07.664Z,98.37
2018-12-25T00:59:36.898Z,98.51
2018-12-25T01:02:06.165Z,98.37
2018-12-25T01:04:35.404Z,99.01
2018-12-25T01:07:04.641Z,98.58
2018-12-25T01:10:11.281Z,98.92
2018-12-25T01:12:59.930Z,98.64
2018-12-25T01:15:29.175Z,98.16
2018-12-25T01:17:58.431Z,98.05
2018-12-25T01:20:27.677Z,97.96
2018-12-25T01:22:56.929Z,97.11
2018-12-25T01:25:45.523Z,97.78
2018-12-25T01:31:23.836Z,97.57
2018-12-25T01:33:53.093Z,97.92
2018-12-25T01:36:22.356Z,97.79
2018-12-25T01:38:51.591Z,97.31
2018-12-25T01:41:20.839Z,97.12
2018-12-25T01:43:50.096Z,97.62
2018-12-25T01:50:07.921Z,98.50
2018-12-25T01:52:37.159Z,98.21
2018-12-25T01:55:43.522Z,97.63
2018-12-25T01:58:12.786Z,97.74
2018-12-25T02:00:42.031Z,98.41
2018-12-25T02:03:11.374Z,98.94
2018-12-25T02:08:18.382Z,97.88
2018-12-25T02:10:47.606Z,98.28
2018-12-25T02:13:16.871Z,97.76
2018-12-25T02:15:46.107Z,98.43
2018-12-25T02:18:15.331Z,98.23
2018-12-25T02:20:44.618Z,98.04
2018-12-25T02:23:13.854Z,97.18
2018-12-25T02:29:14.736Z,97.94
2018-12-25T02:32:40.305Z,97.01
2018-12-25T02:35:09.534Z,96.72
2018-12-25T02:37:38.771Z,97.13
2018-12-25T02:40:27.362Z,97.13
2018-12-25T02:42:56.587Z,97.59
2018-12-25T02:45:25.823Z,96.66
2018-12-25T02:47:55.069Z,96.15
2018-12-25T02:50:24.310Z,96.90
2018-12-25T02:52:53.535Z,96.74
2018-12-25T02:55:22.761Z,97.21
2018-12-25T02:57:52.003Z,96.97
2018-12-25T03:00:21.247Z,97.95
2018-12-25T03:02:50.476Z,97.34
2018-12-25T03:05:19.728Z,96.81
2018-12-25T03:08:26.130Z,96.47
2018-12-25T03:10:55.374Z,96.37
2018-12-25T03:13:24.626Z,96.46
2018-12-25T03:15:53.866Z,97.22
2018-12-25T03:18:23.112Z,97.54
2018-12-25T03:20:52.354Z,97.48
2018-12-25T03:23:21.585Z,97.30
2018-12-25T03:25:50.810Z,96.63
2018-12-25T03:28:20.061Z,97.75
2018-12-25T03:30:49.297Z,98.26
2018-12-25T03:33:18.522Z,98.04
2018-12-25T03:35:47.743Z,97.84
2018-12-25T03:38:17.006Z,98.26
2018-12-25T03:40:46.224Z,98.10
2018-12-25T03:43:15.456Z,98.75
2018-12-25T03:45:44.675Z,98.25
2018-12-25T03:48:13.937Z,98.28
2018-12-25T03:50:43.218Z,96.75
2018-12-25T03:53:12.498Z,96.96
2018-12-25T03:55:41.835Z,97.44
2018-12-25T03:58:11.120Z,97.34
2018-12-25T04:00:40.360Z,97.34
2018-12-25T04:03:09.607Z,97.05
2018-12-25T04:05:38.911Z,97.09
2018-12-25T04:08:08.158Z,97.13
2018-12-25T04:10:37.403Z,97.65
2018-12-25T04:13:06.655Z,97.50
2018-12-25T04:19:08.145Z,97.44
2018-12-25T04:24:32.869Z,97.64
2018-12-25T04:27:02.105Z,97.09
2018-12-25T04:29:31.344Z,96.84
2018-12-25T04:32:00.574Z,97.98
2018-12-25T04:34:49.656Z,97.45
2018-12-25T04:37:18.874Z,97.02
2018-12-25T04:39:48.132Z,96.31
2018-12-25T04:42:17.382Z,96.30
2018-12-25T04:44:46.597Z,97.27
2018-12-25T04:47:15.857Z,96.30
2018-12-25T04:49:45.092Z,96.34
2018-12-25T04:52:14.349Z,96.35
2018-12-25T04:54:43.589Z,95.84
2018-12-25T04:57:12.869Z,95.58
2018-12-25T04:59:42.092Z,95.94
2018-12-25T05:02:11.327Z,95.86
2018-12-25T05:05:00.002Z,96.91
2018-12-25T05:07:29.252Z,95.82
2018-12-25T05:10:35.728Z,95.45
2018-12-25T05:13:04.967Z,95.06
2018-12-25T05:15:34.232Z,95.16
2018-12-25T05:18:22.826Z,95.25
2018-12-25T05:20:52.081Z,95.41
2018-12-25T05:23:21.303Z,96.88
2018-12-25T05:25:50.562Z,97.56
2018-12-25T05:28:19.810Z,97.84
2018-12-25T05:30:49.053Z,97.07
2018-12-25T05:33:18.361Z,95.28
2018-12-25T05:35:47.594Z,95.32
2018-12-25T05:38:16.853Z,95.13
2018-12-25T05:40:46.112Z,95.31
2018-12-25T05:43:15.389Z,95.84
2018-12-25T05:45:44.711Z,95.72
2018-12-25T05:48:33.303Z,95.90
2018-12-25T05:51:02.562Z,96.32
2018-12-25T05:53:31.839Z,96.81
2018-12-25T05:56:01.083Z,95.41
2018-12-25T05:58:30.338Z,94.94
2018-12-25T06:00:59.581Z,95.50
2018-12-25T06:03:28.835Z,95.68
2018-12-25T06:05:58.091Z,96.12
2018-12-25T06:08:27.341Z,96.74
2018-12-25T06:11:15.913Z,96.15
2018-12-25T06:13:45.178Z,96.08
2018-12-25T06:16:14.435Z,96.40
2018-12-25T06:18:43.683Z,96.42
2018-12-25T06:21:12.933Z,96.22
2018-12-25T06:23:42.169Z,95.78
2018-12-25T06:26:11.434Z,95.28
2018-12-25T06:28:40.684Z,95.80
2018-12-25T06:31:24.155Z,96.60
2018-12-25T06:33:59.963Z,96.22
2018-12-25T06:36:29.228Z,95.58
2018-12-25T06:38:58.469Z,96.07
2018-12-25T06:41:27.740Z,96.25
2018-12-25T06:43:56.998Z,95.30
2018-12-25T06:46:26.250Z,95.85
2018-12-25T06:48:55.506Z,95.83
2018-12-25T06:51:24.767Z,95.53
2018-12-25T06:53:54.011Z,95.85
2018-12-25T06:56:23.245Z,96.36
2018-12-25T06:58:52.514Z,96.25
2018-12-25T07:01:21.776Z,95.51
2018-12-25T07:03:51.036Z,95.45
2018-12-25T07:06:20.303Z,95.98
2018-12-25T07:08:49.557Z,95.45
2018-12-25T07:11:18.841Z,95.74
2018-12-25T07:14:07.420Z,95.53
2018-12-25T07:16:36.654Z,95.54
2018-12-25T07:19:05.900Z,95.46
2018-12-25T07:21:35.135Z,95.13
2018-12-25T07:24:04.463Z,94.03
2018-12-25T07:26:33.720Z,95.61
2018-12-25T07:29:02.980Z,96.23
2018-12-25T07:31:32.191Z,96.24
2018-12-25T07:34:01.431Z,96.02
2018-12-25T07:36:30.653Z,96.12
2018-12-25T07:38:59.903Z,95.89
2018-12-25T07:41:29.145Z,95.21
2018-12-25T07:43:58.386Z,95.46
2018-12-25T07:46:27.620Z,95.07
2018-12-25T07:48:56.854Z,95.07
2018-12-25T07:51:26.105Z,95.03
2018-12-25T07:53:55.358Z,95.23
2018-12-25T07:57:01.955Z,95.16
2018-12-25T07:59:31.196Z,95.76
2018-12-25T08:02:19.783Z,94.53
2018-12-25T08:04:49.043Z,94.23
2018-12-25T08:07:18.269Z,94.33
2018-12-25T08:09:47.550Z,93.21
2018-12-25T08:12:16.791Z,93.39
2018-12-25T08:14:46.038Z,93.07
2018-12-25T08:17:34.647Z,93.51
2018-12-25T08:20:43.964Z,93.46
2018-12-25T08:23:13.193Z,94.07
2018-12-25T08:25:42.436Z,93.28
2018-12-25T08:28:11.712Z,90.38
2018-12-25T08:30:40.963Z,91.25
2018-12-25T08:33:10.208Z,91.53
2018-12-25T08:39:41.962Z,90.90
2018-12-25T08:42:11.236Z,91.34
2018-12-25T08:44:40.480Z,91.51
2018-12-25T08:47:11.581Z,91.09
2018-12-25T08:49:59.783Z,90.15
2018-12-25T08:52:29.014Z,90.60
2018-12-25T08:54:58.271Z,90.67
2018-12-25T08:57:27.513Z,89.33
2018-12-25T08:59:56.749Z,88.79
2018-12-25T09:02:25.978Z,89.67
2018-12-25T09:05:14.580Z,88.11
2018-12-25T09:08:03.163Z,88.43
2018-12-25T09:10:32.405Z,89.82
2018-12-25T09:13:01.636Z,88.65
2018-12-25T09:15:30.889Z,87.76
2018-12-25T09:18:00.131Z,88.17
2018-12-25T09:20:29.359Z,88.59
2018-12-25T09:22:58.595Z,87.19
2018-12-25T09:25:27.844Z,88.67
2018-12-25T09:27:57.101Z,87.07
2018-12-25T09:30:26.323Z,86.52
2018-12-25T09:32:55.596Z,85.83
2018-12-25T09:35:24.830Z,87.51
2018-12-25T09:37:54.076Z,87.51
2018-12-25T09:40:42.703Z,86.77
2018-12-25T09:43:11.965Z,86.63
2018-12-25T09:45:41.244Z,86.71
2018-12-25T09:48:13.513Z,87.05
2018-12-25T09:51:20.184Z,85.46
2018-12-25T09:54:09.837Z,86.70
2018-12-25T09:56:58.409Z,86.33
2018-12-25T09:59:27.644Z,86.90
2018-12-25T10:01:56.897Z,86.04
2018-12-25T10:04:26.135Z,84.23
2018-12-25T10:07:14.741Z,84.12
2018-12-25T10:09:43.967Z,83.87
2018-12-25T10:12:13.228Z,84.73
2018-12-25T10:14:42.463Z,84.99
2018-12-25T10:17:11.727Z,84.80
2018-12-25T10:19:40.951Z,85.53
2018-12-25T10:22:10.196Z,85.33
2018-12-25T10:24:39.440Z,84.20
2018-12-25T10:27:28.036Z,84.09
2018-12-25T10:29:57.289Z,83.90
2018-12-25T10:32:26.524Z,84.66
2018-12-25T10:34:55.776Z,84.93
2018-12-25T10:37:25.029Z,82.66
2018-12-25T10:39:54.300Z,83.51
2018-12-25T10:42:23.546Z,84.14
2018-12-25T10:44:52.807Z,84.11
2018-12-25T10:47:22.029Z,84.49
2018-12-25T10:49:51.279Z,84.67
2018-12-25T10:52:20.532Z,83.56
2018-12-25T10:54:49.771Z,83.54
2018-12-25T10:57:19.013Z,83.18
2018-12-25T10:59:48.267Z,83.33
2018-12-25T11:02:17.522Z,83.19
2018-12-25T11:04:46.766Z,83.38
2018-12-25T11:07:16.009Z,83.68
2018-12-25T11:09:45.229Z,82.94
2018-12-25T11:12:14.467Z,81.50
2018-12-25T11:15:05.063Z,82.14
2018-12-25T11:17:34.304Z,79.58
2018-12-25T11:20:24.304Z,82.12
2018-12-25T11:22:53.553Z,81.96
2018-12-25T11:25:22.783Z,82.11
2018-12-25T11:27:52.015Z,81.68
2018-12-25T11:30:21.263Z,81.32
2018-12-25T11:32:50.526Z,80.76
2018-12-25T11:35:19.799Z,80.56
2018-12-25T11:37:49.039Z,80.40
2018-12-25T11:40:18.275Z,81.29
2018-12-25T11:42:47.540Z,81.09
2018-12-25T11:45:16.797Z,80.54
2018-12-25T11:47:46.038Z,79.56
2018-12-25T11:50:15.284Z,80.45
2018-12-25T11:52:44.519Z,79.86
2018-12-25T11:55:13.743Z,80.56
2018-12-25T11:57:42.998Z,79.37
2018-12-25T12:00:12.235Z,79.99
2018-12-25T12:02:41.496Z,80.63
2018-12-25T12:05:10.721Z,79.76
2018-12-25T12:07:39.986Z,81.15
2018-12-25T12:16:14.022Z,78.20
2018-12-25T12:18:43.270Z,80.58
2018-12-25T12:21:12.543Z,80.08
2018-12-25T12:24:01.198Z,80.40
2018-12-25T12:26:30.438Z,79.21
2018-12-25T12:29:56.020Z,79.63
2018-12-25T12:32:25.265Z,79.88
2018-12-25T12:34:54.512Z,80.56
2018-12-25T12:37:23.769Z,80.35
2018-12-25T12:40:12.359Z,78.78
2018-12-25T12:42:41.622Z,78.90
2018-12-25T12:45:10.868Z,79.39
2018-12-25T12:47:40.115Z,80.02
2018-12-25T12:50:49.376Z,79.84
2018-12-25T12:53:48.006Z,78.62
2018-12-25T12:56:17.279Z,79.17
2018-12-25T12:58:46.508Z,79.26
2018-12-25T13:01:15.746Z,79.62
2018-12-25T13:03:44.988Z,78.63
2018-12-25T13:06:14.247Z,78.76
2018-12-25T13:11:41.733Z,79.59
2018-12-25T13:14:10.989Z,79.67
2018-12-25T13:16:40.221Z,78.42
2018-12-25T13:19:28.837Z,79.27
2018-12-25T13:21:58.054Z,79.58
2018-12-25T13:24:27.302Z,78.79
2018-12-25T13:26:56.554Z,77.52
2018-12-25T13:29:25.835Z,77.58
2018-12-25T13:31:55.035Z,78.12
2018-12-25T13:34:24.269Z,78.08
2018-12-25T13:36:53.562Z,77.40
2018-12-25T13:39:42.152Z,77.48
2018-12-25T13:42:11.407Z,76.87
2018-12-25T13:44:59.979Z,77.07
2018-12-25T13:47:29.239Z,76.96
2018-12-25T13:50:27.686Z,76.66
2018-12-25T13:53:02.745Z,76.93
2018-12-25T13:55:46.983Z,76.61
2018-12-25T13:58:16.313Z,76.29
2018-12-25T14:01:04.641Z,76.15
2018-12-25T14:03:34.017Z,76.52
2018-12-25T14:06:03.226Z,76.30
2018-12-25T14:08:32.476Z,77.17
2018-12-25T14:11:57.982Z,76.09
2018-12-25T14:14:27.238Z,75.19
2018-12-25T14:16:56.489Z,76.99
2018-12-25T14:19:25.742Z,76.37
2018-12-25T14:21:54.997Z,75.92
2018-12-25T14:24:24.244Z,76.21
2018-12-25T14:26:53.588Z,75.77
2018-12-25T14:29:22.849Z,76.17
2018-12-25T14:31:52.100Z,76.80
2018-12-25T14:34:21.340Z,76.35
2018-12-25T14:36:50.599Z,77.15
2018-12-25T14:39:57.323Z,77.50
2018-12-25T14:42:26.583Z,75.62
2018-12-25T14:44:55.820Z,76.32
2018-12-25T14:47:25.085Z,76.73
2018-12-25T14:49:54.310Z,78.16
2018-12-25T14:52:23.577Z,77.46
2018-12-25T14:55:12.156Z,78.36
2018-12-25T14:57:41.410Z,78.09
2018-12-25T15:00:29.989Z,78.31
2018-12-25T15:02:59.248Z,78.25
2018-12-25T15:05:28.487Z,77.69
2018-12-25T15:07:57.734Z,78.44
2018-12-25T15:10:26.980Z,78.33
2018-12-25T15:12:56.223Z,77.34
2018-12-25T15:15:25.470Z,78.27
2018-12-25T15:17:54.715Z,77.66
2018-12-25T15:20:43.327Z,77.79
2018-12-25T15:23:12.574Z,77.98
2018-12-25T15:25:41.823Z,78.84
2018-12-25T15:28:11.048Z,78.44
2018-12-25T15:30:40.304Z,77.93
2018-12-25T15:33:09.552Z,78.01
2018-12-25T15:35:38.795Z,79.73
2018-12-25T15:38:08.142Z,79.51
2018-12-25T15:40:37.393Z,79.94
2018-12-25T15:43:06.633Z,79.34
2018-12-25T15:45:55.444Z,77.62
2018-12-25T15:48:24.708Z,78.15
2018-12-25T15:50:53.952Z,80.46
2018-12-25T15:53:23.204Z,79.66
2018-12-25T15:55:52.441Z,80.58
2018-12-25T16:02:24.275Z,80.29
2018-12-25T16:04:53.527Z,78.87
2018-12-25T16:10:11.937Z,80.26
2018-12-25T16:12:41.180Z,80.44
2018-12-25T16:15:10.456Z,80.60
2018-12-25T16:17:39.740Z,80.87
2018-12-25T16:20:48.991Z,80.39
2018-12-25T16:23:18.230Z,81.09
2018-12-25T16:25:47.505Z,81.45
2018-12-25T16:28:36.083Z,81.45
2018-12-25T16:31:05.355Z,81.23
2018-12-25T16:33:34.577Z,81.31
2018-12-25T16:36:03.819Z,80.24
2018-12-25T16:39:29.318Z,80.40
2018-12-25T16:41:58.584Z,80.27
2018-12-25T16:44:27.853Z,79.89
2018-12-25T16:46:57.106Z,80.44
2018-12-25T16:49:45.687Z,81.64
2018-12-25T16:52:14.953Z,81.44
2018-12-25T16:54:44.179Z,81.15
2018-12-25T16:57:32.754Z,81.06
2018-12-25T17:00:02.022Z,81.57
2018-12-25T17:02:50.618Z,81.30
2018-12-25T17:05:19.949Z,81.64
2018-12-25T17:08:08.324Z,81.03
2018-12-25T17:10:37.593Z,81.70
2018-12-25T17:13:06.844Z,80.53
2018-12-25T17:15:55.249Z,80.90
2018-12-25T17:18:24.467Z,81.09
2018-12-25T17:21:13.516Z,80.59
2018-12-25T17:23:42.734Z,81.48
2018-12-25T17:26:11.999Z,81.94
2018-12-25T17:29:00.582Z,80.26
2018-12-25T17:31:29.845Z,80.62
2018-12-25T17:33:59.107Z,80.72
2018-12-25T17:36:28.345Z,79.23
2018-12-25T17:38:57.602Z,78.88
2018-12-25T17:41:26.840Z,79.66
2018-12-25T17:43:56.097Z,79.77
2018-12-25T17:46:25.330Z,80.26
2018-12-25T17:48:54.569Z,80.86
2018-12-25T17:51:23.819Z,80.49
2018-12-25T17:53:53.092Z,79.50
2018-12-25T17:56:22.340Z,79.25
2018-12-25T17:58:51.582Z,79.89
2018-12-25T18:01:20.829Z,79.64
2018-12-25T18:03:50.085Z,79.80
2018-12-25T18:06:19.436Z,80.19
2018-12-25T18:08:48.660Z,77.96
2018-12-25T18:11:17.909Z,80.31
2018-12-25T18:13:47.140Z,79.37
2018-12-25T18:16:16.406Z,79.66
2018-12-25T18:18:45.642Z,78.86
2018-12-25T18:21:14.900Z,78.76
2018-12-25T18:23:44.126Z,79.35
2018-12-25T18:26:13.390Z,79.87
2018-12-25T18:28:42.626Z,80.31
2018-12-25T18:31:31.232Z,79.72
2018-12-25T18:34:00.465Z,78.42
2018-12-25T18:36:29.769Z,80.05
2018-12-25T18:38:58.959Z,80.07
2018-12-25T18:41:28.210Z,79.67
2018-12-25T18:43:57.468Z,79.47
2018-12-25T18:46:26.719Z,79.91
2018-12-25T18:48:55.989Z,81.02
2018-12-25T18:51:44.586Z,80.69
2018-12-25T18:54:13.842Z,80.71
2018-12-25T18:56:43.075Z,81.04
2018-12-25T18:59:12.344Z,81.56
2018-12-25T19:01:41.576Z,81.15
2018-12-25T19:04:10.819Z,81.47
2018-12-25T19:06:40.076Z,80.97
2018-12-25T19:09:09.306Z,82.30
2018-12-25T19:11:40.164Z,81.79
2018-12-25T19:17:59.445Z,82.83
2018-12-25T19:20:28.712Z,82.71
2018-12-25T19:22:57.967Z,82.97
2018-12-25T19:25:27.224Z,83.42
2018-12-25T19:27:56.472Z,82.67
2018-12-25T19:30:25.714Z,83.09
2018-12-25T19:32:54.987Z,84.64
2018-12-25T19:35:24.212Z,82.80
2018-12-25T19:37:53.478Z,82.92
2018-12-25T19:40:22.721Z,82.93
2018-12-25T19:43:11.332Z,83.00
2018-12-25T19:46:00.602Z,82.75
2018-12-25T19:48:29.893Z,83.34
2018-12-25T19:51:18.588Z,82.86
2018-12-25T19:53:47.820Z,82.29
2018-12-25T19:56:17.054Z,81.67
2018-12-25T19:58:46.291Z,81.30
2018-12-25T20:01:15.545Z,82.22
2018-12-25T20:04:24.835Z,81.07
2018-12-25T20:07:14.963Z,81.46
2018-12-25T20:10:04.713Z,81.29
2018-12-25T20:13:30.385Z,81.20
2018-12-25T20:16:18.876Z,82.66
2018-12-25T20:22:37.764Z,84.92
2018-12-25T20:29:41.394Z,84.90
2018-12-25T20:33:07.150Z,86.53
2018-12-25T20:36:15.121Z,84.83
2018-12-25T20:39:23.089Z,85.34
2018-12-25T20:42:47.492Z,85.12
2018-12-25T20:45:35.802Z,86.33
2018-12-25T20:48:43.759Z,87.12
2018-12-25T20:54:39.395Z,87.13
2018-12-25T20:57:48.731Z,87.02
2018-12-25T21:00:58.059Z,87.88
2018-12-25T21:04:23.850Z,86.78
2018-12-25T21:07:33.197Z,86.21
2018-12-25T21:14:12.543Z,87.20
2018-12-25T21:17:20.498Z,88.29
2018-12-25T21:22:59.698Z,88.32
2018-12-25T21:29:19.177Z,88.11
2018-12-25T21:31:48.456Z,89.01
2018-12-25T21:34:57.694Z,88.47
2018-12-25T21:37:26.935Z,88.93
2018-12-25T21:40:33.409Z,88.83
2018-12-25T21:43:02.700Z,89.06
2018-12-25T21:46:12.234Z,89.10
2018-12-25T21:48:41.476Z,89.14
2018-12-25T21:51:30.059Z,89.95
2018-12-25T21:57:09.905Z,88.27
2018-12-25T22:00:00.074Z,88.76
2018-12-25T22:05:45.320Z,90.70
2018-12-25T22:08:14.579Z,90.83
2018-12-25T22:10:43.797Z,92.35
2018-12-25T22:13:32.441Z,90.93
2018-12-25T22:16:01.731Z,90.97
2018-12-25T22:18:30.964Z,89.81
2018-12-25T22:21:00.189Z,90.87
2018-12-25T22:23:29.420Z,90.82
2018-12-25T22:25:58.700Z,91.66
2018-12-25T22:28:27.928Z,92.00
2018-12-25T22:31:15.986Z,90.83
2018-12-25T22:33:45.222Z,90.24
2018-12-25T22:36:14.493Z,91.18
2018-12-25T22:39:05.970Z,92.39
2018-12-25T22:41:33.793Z,90.67
2018-12-25T22:44:03.039Z,91.16
2018-12-25T22:46:32.288Z,91.76
2018-12-25T22:49:01.564Z,92.24
2018-12-25T22:51:30.813Z,91.80
2018-12-25T22:54:00.114Z,92.03
2018-12-25T22:56:29.368Z,91.60
2018-12-25T22:59:17.699Z,91.47
2018-12-25T23:01:46.906Z,92.43
2018-12-25T23:04:35.483Z,91.61
2018-12-25T23:07:04.733Z,91.39
2018-12-25T23:09:53.327Z,92.75
2018-12-25T23:12:22.561Z,92.17
2018-12-25T23:14:51.808Z,92.62
2018-12-25T23:17:21.051Z,92.47
2018-12-25T23:19:50.294Z,92.22
2018-12-25T23:22:19.527Z,92.82
2018-12-25T23:24:48.779Z,92.23
2018-12-25T23:27:18.033Z,92.10
2018-12-25T23:29:47.279Z,91.86
2018-12-25T23:32:16.537Z,91.72
2018-12-25T23:35:05.143Z,92.52
2018-12-25T23:37:34.364Z,92.33
2018-12-25T23:43:10.921Z,91.91
2018-12-25T23:45:40.158Z,92.58
2018-12-25T23:48:09.394Z,92.46
2018-12-25T23:50:38.625Z,92.53
2018-12-25T23:53:27.519Z,92.39
2018-12-25T23:55:56.740Z,92.24
2018-12-25T23:58:26.003Z,92.80
